PAGY/SGY METAR and TAF weather

Enter ICAO airport designator
Station Type Date Time Source
PAGY METAR 2019/04/23 03:53 UTC NOAA

PAGY 230353Z AUTO 20015G24KT 10SM -RA OVC060 07/M04 A2972 RMK AO2 PK WND 21040/0256 SLP063 P0000 T00671044 TSNO


Station Type Date Time Source
PAGY Decoded METAR 2019/04/23 03:53 UTC NOAA

SKAGWAY AIRPORT, AK, United States (PAGY) 59-28N 135-19W 5M
Apr 22, 2019 - 11:53 PM EDT / 2019.04.23 0353 UTC
Wind: from the SSW (200 degrees) at 17 MPH (15 KT) gusting to 28 MPH (24 KT):0
Visibility: 10 mile(s):0
Sky conditions: overcast
Weather: light rain
Precipitation last hour: A trace
Temperature: 44.1 F (6.7 C)
Dew Point: 24.1 F (-4.4 C)
Relative Humidity: 44%
Pressure (altimeter): 29.72 in. Hg (1006 hPa)
ob: PAGY 230353Z AUTO 20015G24KT 10SM -RA OVC060 07/M04 A2972 RMK AO2 PK WND 21040/0256 SLP063 P0000 T00671044 TSNO
cycle: 4

Station Type Date Time Source
PAGY TAF 2019/04/22 20:06 UTC NOAA

TAF
AMD PAGY 222002Z 2220/2318 21020KT P6SM -RA FEW004 SCT025 OVC035
TEMPO 2220/2224 21020G30KT 4SM -RA BR FEW004 BKN025 OVC035
FM230000 22040G55KT P6SM -SHRA SCT035 OVC050
FM230300 22030G45KT P6SM -SHRA SCT035 OVC050
FM230900 22020G30KT P6SM -SHRA SCT020 BKN040 OVC060
AMD LTD TO CLD VIS AND WIND

Example: see airport list